Terminal Aerodrome Forecast
Issued by NWS

Home | Current Version | Previous Version | Text Only | Print | Product List | Glossary On
Versions: 1 2 3 4 5 6 7 8 9 10 11 12 13 14 15 16 17 18 19 20 21 22 23 24 25 26
000
FTUS41 KCAR 251121
TAFPQI
TAF
KPQI 251121Z 2512/2612 24006KT P6SM BKN100
     FM251600 25011G18KT P6SM SCT080 BKN250
     FM252300 24007KT P6SM BKN080
     FM260400 19006KT P6SM -SHRA OVC060
     FM260600 17006KT P6SM -SHRA OVC025
     FM260700 17006KT 5SM -SHRA OVC015
      AMD LTD TO CLD VIS AND WIND=

USA.gov is the U.S. government's official web portal to all federal, state and local government web resources and services.